West Shokan, NY

8:22 AM EDT on October 01, 2016 (GMT -0400)
Stewart International | | Change Station

Elev 492 ft 41.50 °N, 74.10 °W | Updated 37 minutes ago

Light Drizzle
Light Drizzle Mist
52 °F
Feels Like 52 °F
N
7
Wind Variable Wind from NE

Today
High -- | Low -- °F
--% Chance of Precip.
Yesterday
High -- | Low -- °F
Precip. -- in
Pressure 30.27 in
Visibility 1.5 miles
Clouds Overcast 600 ft
Dew Point 52 °F
Humidity 100%
Rainfall 0.00 in
Snow Depth Not available.
6:54 AM 6:37 PM
New Moon, 0% visible
METAR KSWF 011145Z 05006KT 1 1/2SM -DZ BR OVC006 11/11 A3027
Pressure 30.27 in
Visibility 1.5 miles
Clouds Overcast 600 ft
Dew Point 52 °F
Humidity 100%
Rainfall 0.00 in
Snow Depth Not available.
6:54 AM 6:37 PM
New Moon, 0% visible
METAR KSWF 011145Z 05006KT 1 1/2SM -DZ BR OVC006 11/11 A3027

10-Day Weather Forecast

Almanac

Astronomy

Oct. 01, 2016 Rise Set
Actual Time
Civil Twilight
Nautical Twilight
Astronomical Twilight
Moon
Length of Visible Light
Length of Day
Tomorrow will be .
, % of the Moon is Illuminated

Today's Extremes

State Highs State Lows

Community

WunderPhotos

Upload Photos

1,942,920 photos uploaded!

WunderBlog® & News

Nearby

Air Quality

  Air Quality AQ Index Pollutant
Not available.

Snow Depth

Station Depth Elevation

Earthquake Activity

City Distance Mag. Time & Date
Minimum magnitude displayed is 2.5.

Coastal Water Temperatures

Place Temperature

Stations

Nearby Weather Stations

Station Location Temp. Windchill Dew Point Humidity Wind Precip. Elev Updated Type
                   

Watches & Warnings

There are currently no watches in effect.